Time;durP1;ratioP1;P1;durP2;ratioP2;P2;SDS_P1;SDS_P2;PMS_P1;PMS_P2;Temp;Humidity;BMP_temperature;BMP_pressure;BME280_temperature;BME280_humidity;BME280_pressure;Samples;Min_cycle;Max_cycle;Signal;HPM_P1;HPM_P2
2023/09/06 00:01:23;;;;;;;9.48;8.57;;;18.80;99.90;;;;;;5043661;28;20515;-47
2023/09/06 00:03:48;;;;;;;9.45;8.65;;;18.80;99.90;;;;;;5044047;28;20052;-48
2023/09/06 00:06:14;;;;;;;11.95;9.00;;;18.80;99.90;;;;;;5009135;28;20462;-48
2023/09/06 00:08:40;;;;;;;9.48;8.45;;;18.80;99.90;;;;;;5042703;28;20053;-47
2023/09/06 00:11:05;;;;;;;11.13;9.13;;;18.80;99.90;;;;;;5043067;28;20102;-47
2023/09/06 00:13:32;;;;;;;9.82;8.80;;;18.80;99.90;;;;;;5047326;28;20496;-47
2023/09/06 00:16:02;;;;;;;9.30;8.50;;;18.80;99.90;;;;;;5029684;28;20049;-47
2023/09/06 00:18:28;;;;;;;9.13;8.00;;;18.80;99.90;;;;;;5046952;28;20103;-46
2023/09/06 00:20:54;;;;;;;9.55;8.65;;;18.80;99.90;;;;;;5047180;28;20127;-50
2023/09/06 00:23:20;;;;;;;9.23;8.35;;;18.70;99.90;;;;;;5034201;28;20037;-47
2023/09/06 00:25:46;;;;;;;10.35;9.35;;;18.70;99.90;;;;;;5047145;28;20473;-47
2023/09/06 00:28:13;;;;;;;10.10;9.20;;;18.70;99.90;;;;;;5028957;28;20045;-47
2023/09/06 00:30:39;;;;;;;9.25;8.32;;;18.70;99.90;;;;;;5022612;28;20048;-49
2023/09/06 00:33:06;;;;;;;10.13;9.05;;;18.70;99.90;;;;;;5047569;28;20349;-49
2023/09/06 00:35:32;;;;;;;10.02;8.88;;;18.70;99.90;;;;;;5046951;28;20318;-46
2023/09/06 00:38:05;;;;;;;9.15;8.20;;;18.60;99.90;;;;;;5047528;28;20037;-47
2023/09/06 00:40:35;;;;;;;10.27;8.32;;;18.60;99.90;;;;;;5046297;28;20127;-46
2023/09/06 00:43:02;;;;;;;8.60;7.88;;;18.60;99.90;;;;;;5046973;28;20110;-45
2023/09/06 00:45:37;;;;;;;9.35;8.55;;;18.60;99.90;;;;;;5047239;28;20462;-46
2023/09/06 00:48:05;;;;;;;10.25;9.20;;;18.50;99.90;;;;;;5037529;28;20037;-47
2023/09/06 00:50:33;;;;;;;9.10;8.30;;;18.50;99.90;;;;;;5028549;28;20052;-47
2023/09/06 00:52:59;;;;;;;11.27;8.95;;;18.50;99.90;;;;;;5046937;28;20464;-47
2023/09/06 00:55:25;;;;;;;10.13;8.95;;;18.40;99.90;;;;;;5046864;28;20103;-47
2023/09/06 00:57:52;;;;;;;9.32;8.52;;;18.40;99.90;;;;;;5046894;28;20053;-46
2023/09/06 01:00:19;;;;;;;9.95;8.88;;;18.40;99.90;;;;;;5027677;28;20053;-49
2023/09/06 01:02:47;;;;;;;9.85;8.95;;;18.30;99.90;;;;;;5028414;28;20045;-47
2023/09/06 01:05:13;;;;;;;9.52;8.60;;;18.20;99.90;;;;;;5028823;28;20082;-49
2023/09/06 01:07:40;;;;;;;9.43;8.63;;;18.20;99.90;;;;;;5028494;28;20415;-47
2023/09/06 01:10:06;;;;;;;9.82;8.98;;;18.10;99.90;;;;;;5045100;28;20088;-48
2023/09/06 01:12:34;;;;;;;9.25;8.45;;;18.10;99.90;;;;;;5046643;28;20106;-48
2023/09/06 01:15:04;;;;;;;10.38;9.20;;;18.00;99.90;;;;;;5044593;28;20048;-47
2023/09/06 01:17:31;;;;;;;9.10;8.25;;;18.00;99.90;;;;;;5028653;28;20060;-47
2023/09/06 01:20:15;;;;;;;10.23;9.02;;;17.80;99.90;;;;;;5045250;28;20052;-46
2023/09/06 01:22:47;;;;;;;8.88;8.07;;;17.80;99.90;;;;;;5046181;28;20480;-46
2023/09/06 01:25:14;;;;;;;8.60;7.80;;;17.70;99.90;;;;;;5046070;28;20672;-47
2023/09/06 01:27:40;;;;;;;8.38;7.55;;;17.50;99.90;;;;;;5045906;28;20573;-49
2023/09/06 01:30:07;;;;;;;9.40;6.80;;;17.40;99.90;;;;;;5027809;28;20075;-48
2023/09/06 01:32:32;;;;;;;8.13;7.40;;;17.30;99.90;;;;;;5046294;28;20049;-48
2023/09/06 01:34:58;;;;;;;6.95;6.35;;;17.20;99.90;;;;;;5046003;28;20056;-48
2023/09/06 01:37:23;;;;;;;9.63;7.10;;;17.10;99.90;;;;;;5028188;28;20085;-49
2023/09/06 01:39:49;;;;;;;9.75;8.80;;;17.10;99.90;;;;;;5045382;28;20028;-49
2023/09/06 01:42:14;;;;;;;10.68;9.15;;;17.10;99.90;;;;;;5045646;28;20044;-49
2023/09/06 01:44:40;;;;;;;10.57;9.63;;;17.10;99.90;;;;;;5027437;28;20456;-48
2023/09/06 01:47:06;;;;;;;9.77;8.82;;;17.10;99.90;;;;;;5036819;28;20113;-48
2023/09/06 01:49:32;;;;;;;9.82;9.02;;;17.10;99.90;;;;;;5045202;28;20400;-50
2023/09/06 01:51:59;;;;;;;10.50;9.38;;;17.10;99.90;;;;;;5045642;28;20056;-48
2023/09/06 01:54:25;;;;;;;9.55;8.75;;;17.10;99.90;;;;;;5027634;28;20522;-48
2023/09/06 01:56:51;;;;;;;9.27;7.53;;;17.10;99.90;;;;;;5045739;28;20041;-48
2023/09/06 01:59:17;;;;;;;11.90;9.20;;;17.10;99.90;;;;;;5045049;28;20044;-47
2023/09/06 02:01:42;;;;;;;9.48;8.57;;;17.10;99.90;;;;;;5033809;28;20554;-49
2023/09/06 02:04:08;;;;;;;10.27;8.85;;;17.00;99.90;;;;;;5026514;28;20116;-47
2023/09/06 02:06:34;;;;;;;9.15;8.23;;;17.00;99.90;;;;;;5025560;28;20090;-49
2023/09/06 02:08:59;;;;;;;8.77;8.02;;;16.90;99.90;;;;;;5044398;28;20518;-50
2023/09/06 02:11:25;;;;;;;9.93;9.02;;;16.80;99.90;;;;;;5025639;28;20114;-48
2023/09/06 02:13:51;;;;;;;10.27;8.95;;;16.70;99.90;;;;;;5027056;28;20194;-46
2023/09/06 02:16:18;;;;;;;9.30;8.40;;;16.70;99.90;;;;;;5044962;28;20055;-49
2023/09/06 02:18:43;;;;;;;10.30;9.30;;;16.70;99.90;;;;;;5045223;28;20045;-47
2023/09/06 02:21:09;;;;;;;9.85;9.00;;;16.60;99.90;;;;;;5044665;28;20059;-50
2023/09/06 02:23:35;;;;;;;10.80;9.80;;;16.60;99.90;;;;;;5045498;28;20086;-47
2023/09/06 02:26:02;;;;;;;10.60;9.32;;;16.60;99.90;;;;;;5045250;28;20037;-48
2023/09/06 02:28:28;;;;;;;10.65;8.70;;;16.60;99.90;;;;;;5044409;28;20048;-48
2023/09/06 02:30:54;;;;;;;9.60;7.85;;;16.70;99.90;;;;;;5044743;28;20047;-47
2023/09/06 02:33:19;;;;;;;10.80;9.80;;;16.70;99.90;;;;;;5045420;28;20182;-46
2023/09/06 02:35:45;;;;;;;9.98;9.07;;;16.60;99.90;;;;;;5044283;28;20049;-49
2023/09/06 02:38:12;;;;;;;11.45;9.82;;;16.60;99.90;;;;;;5044669;28;20044;-50
2023/09/06 02:40:41;;;;;;;10.57;9.48;;;16.70;99.90;;;;;;5044170;28;20462;-47
2023/09/06 02:43:07;;;;;;;11.00;9.45;;;16.70;99.90;;;;;;5044863;28;20072;-50
2023/09/06 02:45:39;;;;;;;11.98;10.88;;;16.70;99.90;;;;;;5026444;28;20080;-47
2023/09/06 02:48:06;;;;;;;9.90;9.10;;;16.70;99.90;;;;;;5035422;28;20037;-50
2023/09/06 02:50:34;;;;;;;11.05;10.05;;;16.70;99.90;;;;;;5044140;28;20455;-50
2023/09/06 02:53:02;;;;;;;10.50;9.45;;;16.80;99.90;;;;;;5044428;28;20060;-48
2023/09/06 02:55:28;;;;;;;12.98;9.75;;;16.80;99.90;;;;;;5044397;28;20040;-47
2023/09/06 02:57:55;;;;;;;10.82;9.82;;;16.80;99.90;;;;;;5026029;28;20048;-47
2023/09/06 03:00:26;;;;;;;10.23;9.30;;;16.90;99.90;;;;;;5009413;28;20063;-51
2023/09/06 03:03:07;;;;;;;12.32;9.68;;;16.90;99.90;;;;;;5026524;28;20087;-48
2023/09/06 03:05:41;;;;;;;10.13;9.23;;;16.90;99.90;;;;;;5032589;28;20044;-48
2023/09/06 03:08:07;;;;;;;10.90;9.82;;;17.00;99.90;;;;;;5026353;28;20136;-50
2023/09/06 03:10:34;;;;;;;10.40;9.40;;;17.00;99.90;;;;;;5043605;28;20140;-48
2023/09/06 03:13:00;;;;;;;11.05;9.88;;;17.00;99.90;;;;;;5025580;28;20233;-47
2023/09/06 03:15:29;;;;;;;11.95;9.75;;;17.00;99.90;;;;;;5026182;28;20040;-47
2023/09/06 03:17:58;;;;;;;10.50;9.60;;;17.00;99.90;;;;;;5043670;28;20041;-47
2023/09/06 03:20:33;;;;;;;10.52;9.43;;;17.00;99.90;;;;;;5043626;28;20037;-47
2023/09/06 03:23:17;;;;;;;10.30;9.30;;;17.00;99.90;;;;;;5043705;28;20518;-47
2023/09/06 03:25:53;;;;;;;9.80;8.90;;;17.00;99.90;;;;;;5044246;28;20047;-48
2023/09/06 03:28:21;;;;;;;9.32;8.25;;;17.00;99.90;;;;;;5031396;28;20040;-48
2023/09/06 03:30:47;;;;;;;13.85;9.95;;;17.00;99.90;;;;;;5025247;28;20166;-47
2023/09/06 03:33:13;;;;;;;9.85;8.95;;;17.00;99.90;;;;;;5025981;28;20072;-48
2023/09/06 03:35:39;;;;;;;9.73;8.82;;;17.00;99.90;;;;;;5043702;28;20132;-47
2023/09/06 03:38:10;;;;;;;9.63;8.82;;;16.90;99.90;;;;;;5044046;28;20547;-47
2023/09/06 03:40:36;;;;;;;9.90;8.82;;;16.90;99.90;;;;;;5043478;28;20068;-46
2023/09/06 03:43:04;;;;;;;9.32;8.18;;;16.90;99.90;;;;;;5025894;28;20484;-49
2023/09/06 03:45:31;;;;;;;9.50;8.63;;;16.80;99.90;;;;;;5043785;28;20036;-49
2023/09/06 03:47:57;;;;;;;9.60;8.40;;;16.90;99.90;;;;;;5016276;28;20399;-48
2023/09/06 03:50:23;;;;;;;9.73;8.82;;;16.90;99.90;;;;;;5043417;28;20063;-50
2023/09/06 03:52:52;;;;;;;9.90;9.00;;;16.90;99.90;;;;;;5044062;28;20033;-46
2023/09/06 03:55:18;;;;;;;9.95;8.88;;;16.80;99.90;;;;;;5043844;28;20641;-47
2023/09/06 03:57:44;;;;;;;9.93;9.02;;;16.80;99.90;;;;;;5043785;28;20045;-50
2023/09/06 04:00:29;;;;;;;9.55;8.65;;;16.80;99.90;;;;;;5042902;28;20403;-49
2023/09/06 04:02:55;;;;;;;12.52;9.70;;;16.80;99.90;;;;;;5028581;28;20465;-50
2023/09/06 04:05:27;;;;;;;9.63;8.70;;;16.80;99.90;;;;;;5042443;28;20048;-46
2023/09/06 04:08:00;;;;;;;10.25;9.23;;;16.80;99.90;;;;;;5042637;28;20227;-47
2023/09/06 04:10:35;;;;;;;10.20;8.55;;;16.80;99.90;;;;;;5042417;28;20407;-50
2023/09/06 04:13:01;;;;;;;10.93;9.75;;;16.80;99.90;;;;;;5042744;28;20056;-46
2023/09/06 04:15:28;;;;;;;9.55;8.60;;;16.80;99.90;;;;;;5043460;28;20051;-50
2023/09/06 04:17:58;;;;;;;9.80;8.80;;;16.80;99.90;;;;;;5025130;28;20503;-48
2023/09/06 04:20:31;;;;;;;10.07;9.07;;;16.70;99.90;;;;;;5042842;28;20504;-49
2023/09/06 04:23:00;;;;;;;10.98;8.73;;;16.70;99.90;;;;;;5026485;28;20185;-49
2023/09/06 04:25:26;;;;;;;11.10;8.73;;;16.70;99.90;;;;;;5025175;28;20710;-48
2023/09/06 04:27:55;;;;;;;9.75;8.75;;;16.70;99.90;;;;;;5043023;28;20110;-46
2023/09/06 04:30:25;;;;;;;11.93;10.50;;;16.70;99.90;;;;;;5042933;28;20110;-50
2023/09/06 04:32:51;;;;;;;9.02;8.23;;;16.70;99.90;;;;;;5043448;28;20033;-48
2023/09/06 04:35:17;;;;;;;10.43;9.30;;;16.70;99.90;;;;;;5043688;28;20410;-47
2023/09/06 04:37:44;;;;;;;10.63;9.35;;;16.70;99.90;;;;;;5042697;28;20114;-50
2023/09/06 04:40:13;;;;;;;10.18;8.98;;;16.60;99.90;;;;;;5024830;28;20044;-49
2023/09/06 04:42:41;;;;;;;9.40;8.50;;;16.60;99.90;;;;;;5043124;28;20040;-47
2023/09/06 04:45:09;;;;;;;10.30;8.23;;;16.60;99.90;;;;;;5043739;28;20056;-50
2023/09/06 04:47:36;;;;;;;10.65;8.23;;;16.60;99.90;;;;;;5036496;28;20049;-48
2023/09/06 04:50:03;;;;;;;9.68;8.48;;;16.60;99.90;;;;;;5042723;28;20135;-46
2023/09/06 04:52:29;;;;;;;9.25;8.30;;;16.60;99.90;;;;;;5029718;28;20052;-48
2023/09/06 04:54:54;;;;;;;10.48;8.73;;;16.60;99.90;;;;;;5024840;28;20098;-51
2023/09/06 04:57:21;;;;;;;9.65;8.63;;;16.60;99.90;;;;;;5012527;28;20099;-47
2023/09/06 04:59:46;;;;;;;9.82;8.88;;;16.60;99.90;;;;;;5027625;28;20522;-49
2023/09/06 05:02:12;;;;;;;10.25;9.25;;;16.60;99.90;;;;;;5011923;28;20124;-49
2023/09/06 05:04:38;;;;;;;9.70;8.80;;;16.60;99.90;;;;;;5046600;28;20057;-50
2023/09/06 05:07:06;;;;;;;10.02;9.02;;;16.60;99.90;;;;;;5046713;28;20045;-46
2023/09/06 05:09:34;;;;;;;10.02;9.07;;;16.60;99.90;;;;;;5045268;28;20130;-48
2023/09/06 05:12:00;;;;;;;10.07;9.05;;;16.60;99.90;;;;;;5015338;28;20056;-46
2023/09/06 05:14:27;;;;;;;12.30;9.57;;;16.60;99.90;;;;;;5028474;28;20048;-51
2023/09/06 05:16:52;;;;;;;10.07;9.18;;;16.60;99.90;;;;;;5046362;28;20052;-48
2023/09/06 05:19:21;;;;;;;12.70;10.52;;;16.60;99.90;;;;;;5045504;28;20056;-50
2023/09/06 05:21:46;;;;;;;11.55;10.45;;;16.60;99.90;;;;;;5045127;28;20056;-50
2023/09/06 05:24:12;;;;;;;10.80;9.52;;;16.60;99.90;;;;;;5046118;28;20492;-49
2023/09/06 05:26:39;;;;;;;11.32;9.63;;;16.60;99.90;;;;;;5046646;28;20124;-49
2023/09/06 05:29:04;;;;;;;11.38;10.02;;;16.60;99.90;;;;;;5045673;28;20033;-49
2023/09/06 05:31:30;;;;;;;12.57;10.77;;;16.60;99.90;;;;;;5045540;28;20483;-50
2023/09/06 05:33:55;;;;;;;10.70;9.57;;;16.70;99.90;;;;;;5028038;28;20127;-49
2023/09/06 05:36:21;;;;;;;11.80;8.88;;;17.10;99.90;;;;;;5028094;28;20060;-50
2023/09/06 05:38:47;;;;;;;9.70;8.70;;;18.00;99.90;;;;;;5026954;28;20040;-49
2023/09/06 05:41:12;;;;;;;9.05;8.15;;;18.50;99.90;;;;;;5027449;28;20037;-51
2023/09/06 05:43:38;;;;;;;10.55;7.90;;;18.70;99.90;;;;;;5045862;28;20051;-50
2023/09/06 05:46:04;;;;;;;9.32;7.95;;;19.10;99.90;;;;;;5042727;28;20033;-50
2023/09/06 05:48:29;;;;;;;8.60;7.80;;;20.40;99.90;;;;;;5021601;28;20433;-51
2023/09/06 05:50:55;;;;;;;8.80;8.00;;;21.90;99.90;;;;;;5045841;28;20037;-49
2023/09/06 05:53:21;;;;;;;8.57;7.38;;;23.20;99.90;;;;;;5045676;28;20100;-50
2023/09/06 05:55:46;;;;;;;9.90;7.28;;;24.40;99.90;;;;;;5045870;28;20044;-47
2023/09/06 05:58:12;;;;;;;7.72;6.85;;;25.50;99.90;;;;;;5026516;28;20037;-50
2023/09/06 06:00:37;;;;;;;8.55;6.68;;;26.50;99.90;;;;;;5027186;28;20136;-51
2023/09/06 06:03:03;;;;;;;8.40;6.47;;;27.30;99.90;;;;;;5045275;28;20136;-48
2023/09/06 06:05:29;;;;;;;7.78;7.10;;;28.10;99.90;;;;;;5045349;28;20124;-51
2023/09/06 06:07:57;;;;;;;10.25;7.97;;;28.80;99.90;;;;;;5044767;28;20432;-48
2023/09/06 06:10:23;;;;;;;9.50;8.30;;;29.50;99.90;;;;;;5043622;28;20057;-49
2023/09/06 06:12:49;;;;;;;7.72;6.72;;;29.90;99.70;;;;;;5045609;28;20511;-50
2023/09/06 06:15:15;;;;;;;7.05;6.35;;;30.30;98.70;;;;;;5045662;28;20041;-51
2023/09/06 06:17:41;;;;;;;7.47;6.30;;;30.60;97.70;;;;;;5045118;28;20108;-50
2023/09/06 06:20:09;;;;;;;8.93;8.10;;;30.90;96.70;;;;;;5044922;28;20045;-49
2023/09/06 06:22:39;;;;;;;11.57;9.10;;;31.00;96.00;;;;;;5045022;28;20062;-50
2023/09/06 06:25:10;;;;;;;7.60;6.90;;;30.90;95.90;;;;;;5025733;28;20033;-49
2023/09/06 06:27:37;;;;;;;8.23;6.90;;;31.00;93.70;;;;;;5026726;28;20103;-51
2023/09/06 06:30:05;;;;;;;9.82;6.13;;;31.00;95.50;;;;;;5044753;28;20080;-48
2023/09/06 06:32:32;;;;;;;6.28;5.65;;;31.20;95.10;;;;;;5044504;28;20755;-49
2023/09/06 06:35:01;;;;;;;7.40;6.32;;;31.40;94.60;;;;;;5026493;28;20147;-50
2023/09/06 06:37:27;;;;;;;6.25;5.65;;;31.40;94.00;;;;;;5044270;28;20182;-49
2023/09/06 06:39:54;;;;;;;7.22;6.47;;;31.70;93.90;;;;;;5009902;28;20496;-52
2023/09/06 06:42:20;;;;;;;6.97;6.28;;;31.90;93.70;;;;;;5044251;28;20048;-51
2023/09/06 06:44:46;;;;;;;7.35;6.68;;;32.00;92.70;;;;;;5044765;28;20040;-50
2023/09/06 06:47:12;;;;;;;8.55;6.15;;;32.10;92.90;;;;;;5035185;28;20423;-48
2023/09/06 06:49:38;;;;;;;11.27;6.50;;;32.00;92.50;;;;;;5043887;28;20041;-52
2023/09/06 06:52:04;;;;;;;6.57;5.97;;;32.20;92.00;;;;;;5009949;28;20051;-49
2023/09/06 06:54:29;;;;;;;7.57;6.55;;;32.40;90.80;;;;;;5015681;28;20484;-48
2023/09/06 06:56:55;;;;;;;6.63;6.00;;;32.60;91.90;;;;;;5026276;28;20045;-50
2023/09/06 06:59:20;;;;;;;7.72;5.93;;;32.60;91.90;;;;;;5044259;28;20086;-49
2023/09/06 07:01:47;;;;;;;7.05;5.72;;;32.50;91.60;;;;;;5026168;28;20091;-49
2023/09/06 07:04:13;;;;;;;6.38;5.45;;;32.30;91.00;;;;;;5044718;28;20052;-50
2023/09/06 07:06:39;;;;;;;6.28;5.68;;;32.00;91.70;;;;;;5044922;28;20108;-50
2023/09/06 07:09:04;;;;;;;6.55;5.88;;;31.10;92.60;;;;;;5026228;28;20128;-50
2023/09/06 07:11:31;;;;;;;7.43;5.88;;;30.40;92.80;;;;;;5042927;28;20401;-50
2023/09/06 07:13:57;;;;;;;6.75;5.65;;;29.60;93.80;;;;;;5043344;28;20766;-48
2023/09/06 07:16:23;;;;;;;6.20;5.53;;;28.80;95.10;;;;;;5043912;28;20044;-50
2023/09/06 07:18:49;;;;;;;6.78;6.18;;;28.30;96.20;;;;;;5025512;28;20204;-48
2023/09/06 07:21:16;;;;;;;8.00;5.75;;;28.00;96.20;;;;;;5042721;28;20258;-51
2023/09/06 07:23:42;;;;;;;6.45;5.85;;;27.60;96.60;;;;;;5040823;28;20033;-49
2023/09/06 07:26:08;;;;;;;5.88;5.25;;;27.30;97.60;;;;;;5025456;28;20037;-49
2023/09/06 07:28:45;;;;;;;6.75;6.13;;;27.10;98.10;;;;;;5043110;28;20041;-49
2023/09/06 07:31:11;;;;;;;7.18;5.65;;;26.90;98.40;;;;;;5041249;28;20324;-50
2023/09/06 07:33:38;;;;;;;8.50;6.20;;;26.70;98.70;;;;;;5042470;28;20072;-49
2023/09/06 07:36:04;;;;;;;7.68;6.20;;;26.70;99.10;;;;;;5009015;28;20046;-48
2023/09/06 07:38:30;;;;;;;9.13;5.88;;;26.50;99.40;;;;;;5042449;28;20047;-49
2023/09/06 07:41:05;;;;;;;7.85;6.25;;;26.40;99.80;;;;;;5023819;28;20048;-49
2023/09/06 07:43:31;;;;;;;10.68;7.07;;;26.30;99.50;;;;;;5039632;28;20040;-50
2023/09/06 07:45:59;;;;;;;10.50;6.15;;;26.20;99.80;;;;;;5004966;28;20037;-49
2023/09/06 07:48:26;;;;;;;8.15;6.70;;;26.10;99.90;;;;;;5040068;28;20037;-47
2023/09/06 07:50:52;;;;;;;8.77;6.05;;;26.00;99.90;;;;;;5039777;28;20136;-50
2023/09/06 07:53:18;;;;;;;15.77;6.68;;;25.90;99.90;;;;;;5041318;28;20124;-51
2023/09/06 07:55:46;;;;;;;6.80;6.05;;;25.90;99.90;;;;;;5041506;28;20037;-48
2023/09/06 07:58:12;;;;;;;8.77;6.65;;;25.80;99.90;;;;;;5030935;28;20527;-52
2023/09/06 08:00:38;;;;;;;7.47;6.68;;;25.70;99.90;;;;;;5028703;28;20127;-51
2023/09/06 08:03:04;;;;;;;7.45;6.40;;;25.70;99.90;;;;;;5042735;28;20160;-49
2023/09/06 08:05:31;;;;;;;10.65;6.43;;;25.80;99.90;;;;;;5042256;28;20146;-50
2023/09/06 08:07:58;;;;;;;6.63;5.93;;;25.70;99.90;;;;;;5023710;28;20072;-51
2023/09/06 08:10:24;;;;;;;7.38;6.30;;;25.80;99.90;;;;;;5039972;28;20512;-51
2023/09/06 08:12:50;;;;;;;8.55;6.35;;;25.70;99.90;;;;;;5039759;28;20544;-50
2023/09/06 08:15:17;;;;;;;6.85;6.13;;;25.70;99.90;;;;;;5024077;28;20045;-51
2023/09/06 08:17:47;;;;;;;7.53;5.88;;;25.70;99.90;;;;;;5042375;28;20518;-51
2023/09/06 08:20:14;;;;;;;7.32;6.60;;;25.70;99.90;;;;;;5042000;28;20048;-52
2023/09/06 08:22:41;;;;;;;7.75;6.57;;;25.70;99.90;;;;;;5025190;28;20496;-52
2023/09/06 08:25:06;;;;;;;10.95;6.40;;;25.70;99.90;;;;;;5042562;28;20041;-51
2023/09/06 08:27:32;;;;;;;12.60;7.13;;;25.80;99.90;;;;;;5042268;28;20102;-52
2023/09/06 08:29:58;;;;;;;8.43;5.88;;;25.80;99.90;;;;;;5042124;28;20464;-52
2023/09/06 08:32:24;;;;;;;6.93;6.22;;;25.90;99.90;;;;;;5024731;28;20090;-51
2023/09/06 08:34:49;;;;;;;8.80;6.00;;;25.90;99.90;;;;;;5044679;28;20476;-52
2023/09/06 08:37:15;;;;;;;7.68;6.13;;;25.90;99.90;;;;;;5008958;28;20057;-51
2023/09/06 08:39:41;;;;;;;7.25;6.55;;;25.90;99.90;;;;;;5027240;28;20063;-53
2023/09/06 08:42:07;;;;;;;7.15;6.38;;;25.90;99.90;;;;;;5044882;28;20107;-52
2023/09/06 08:44:35;;;;;;;6.78;6.07;;;25.90;99.90;;;;;;5045341;28;20068;-51
2023/09/06 08:47:04;;;;;;;9.05;5.95;;;25.90;99.90;;;;;;5044706;28;20083;-52
2023/09/06 08:49:31;;;;;;;7.03;5.93;;;26.00;99.90;;;;;;5027627;28;20119;-52
2023/09/06 08:51:59;;;;;;;13.00;6.13;;;26.10;99.90;;;;;;5046079;28;20045;-52
2023/09/06 08:54:25;;;;;;;8.55;6.07;;;26.10;99.90;;;;;;5028633;28;20219;-52
2023/09/06 08:56:52;;;;;;;6.88;6.20;;;26.20;99.90;;;;;;5047082;28;20049;-52
2023/09/06 08:59:19;;;;;;;6.40;5.13;;;26.20;99.90;;;;;;5046103;28;20037;-50
2023/09/06 09:01:45;;;;;;;5.55;5.03;;;26.30;99.90;;;;;;5046391;28;20175;-52
2023/09/06 09:04:12;;;;;;;6.95;6.30;;;26.30;99.90;;;;;;5046490;28;20682;-52
2023/09/06 09:06:42;;;;;;;7.72;5.57;;;26.40;99.90;;;;;;5028066;28;20412;-50
2023/09/06 09:09:18;;;;;;;5.68;5.18;;;26.50;99.90;;;;;;5027427;28;20122;-52
2023/09/06 09:11:48;;;;;;;9.57;5.82;;;26.60;99.90;;;;;;5046373;28;20056;-51
2023/09/06 09:14:21;;;;;;;6.22;5.22;;;26.60;99.90;;;;;;5044055;28;20072;-51
2023/09/06 09:16:58;;;;;;;6.63;5.43;;;26.60;99.90;;;;;;5027339;28;20620;-51
2023/09/06 09:19:24;;;;;;;7.30;5.82;;;26.60;99.90;;;;;;5044285;28;20048;-51
2023/09/06 09:21:51;;;;;;;8.98;6.05;;;26.60;99.90;;;;;;5029245;28;20044;-52
2023/09/06 09:24:28;;;;;;;8.98;5.93;;;26.60;99.90;;;;;;5046294;28;20433;-51
2023/09/06 09:26:58;;;;;;;6.43;5.68;;;26.60;99.90;;;;;;5045798;28;20512;-52
2023/09/06 09:29:25;;;;;;;6.65;5.88;;;26.60;99.90;;;;;;5044801;28;20484;-52
2023/09/06 09:31:51;;;;;;;7.97;5.07;;;26.70;99.90;;;;;;5044808;28;20511;-53
2023/09/06 09:34:17;;;;;;;7.63;5.20;;;26.90;99.90;;;;;;5044781;28;20037;-53
2023/09/06 09:36:50;;;;;;;6.78;5.60;;;27.00;99.90;;;;;;5044760;28;20140;-50
2023/09/06 09:39:18;;;;;;;5.88;4.75;;;27.00;99.90;;;;;;5042652;28;20357;-53
2023/09/06 09:41:44;;;;;;;5.22;4.55;;;27.10;99.90;;;;;;5027167;28;20048;-52
2023/09/06 09:44:19;;;;;;;6.15;5.55;;;27.20;99.90;;;;;;5044722;28;20128;-53
2023/09/06 09:46:45;;;;;;;7.00;5.32;;;27.20;99.90;;;;;;5036437;28;20041;-53
2023/09/06 09:49:12;;;;;;;7.45;5.63;;;27.30;99.90;;;;;;5044070;28;20047;-52
2023/09/06 09:51:40;;;;;;;6.22;4.90;;;27.40;99.90;;;;;;5045450;28;20056;-53
2023/09/06 09:54:07;;;;;;;7.30;4.82;;;27.40;99.90;;;;;;5026431;28;20052;-53
2023/09/06 09:56:41;;;;;;;5.15;4.65;;;27.40;99.90;;;;;;5045258;28;20565;-53
2023/09/06 09:59:08;;;;;;;6.28;5.10;;;27.30;99.90;;;;;;5043524;28;20048;-51
2023/09/06 10:01:33;;;;;;;6.45;4.40;;;27.40;99.90;;;;;;5045208;28;20483;-51
2023/09/06 10:04:05;;;;;;;5.15;4.50;;;27.40;99.90;;;;;;5043624;28;20048;-53
2023/09/06 10:06:32;;;;;;;4.80;4.03;;;27.50;99.90;;;;;;5026818;28;20053;-53
2023/09/06 10:09:00;;;;;;;6.35;4.38;;;27.60;99.90;;;;;;5042310;28;20052;-52
2023/09/06 10:11:26;;;;;;;5.75;4.30;;;27.50;99.90;;;;;;5025549;28;20071;-52
2023/09/06 10:13:53;;;;;;;4.63;3.80;;;27.70;99.90;;;;;;5044289;28;20041;-52
2023/09/06 10:16:20;;;;;;;6.63;4.45;;;27.70;99.90;;;;;;5043038;28;20809;-53
2023/09/06 10:18:46;;;;;;;6.45;4.55;;;27.70;99.90;;;;;;5027842;28;20129;-55
2023/09/06 10:21:13;;;;;;;6.07;4.53;;;27.70;99.90;;;;;;5036440;28;20088;-54
2023/09/06 10:23:42;;;;;;;5.43;4.75;;;27.80;99.90;;;;;;5041448;28;20044;-54
2023/09/06 10:26:08;;;;;;;7.00;4.28;;;27.90;99.90;;;;;;5040212;28;20105;-54
2023/09/06 10:28:35;;;;;;;4.55;4.00;;;27.80;99.90;;;;;;5042395;28;20048;-54
2023/09/06 10:31:08;;;;;;;4.55;3.75;;;27.90;99.90;;;;;;5025960;28;20525;-54
2023/09/06 10:33:36;;;;;;;5.10;4.28;;;28.00;99.90;;;;;;5043988;28;20059;-54
2023/09/06 10:36:11;;;;;;;5.65;4.38;;;28.00;99.90;;;;;;5039595;28;20057;-54
2023/09/06 10:38:52;;;;;;;3.63;3.30;;;28.00;99.90;;;;;;5036655;28;20045;-54
2023/09/06 10:41:18;;;;;;;6.68;4.07;;;28.10;99.90;;;;;;5026177;28;20487;-54
2023/09/06 10:44:00;;;;;;;5.35;4.28;;;28.00;99.90;;;;;;5044585;28;20040;-54
2023/09/06 10:46:31;;;;;;;6.38;4.35;;;28.10;99.90;;;;;;5039604;28;20045;-55
2023/09/06 10:49:22;;;;;;;7.28;4.47;;;28.20;99.90;;;;;;5043285;28;20051;-54
2023/09/06 10:52:09;;;;;;;3.90;3.58;;;28.30;99.90;;;;;;5044204;28;20472;-54
2023/09/06 10:54:42;;;;;;;7.00;3.78;;;28.30;99.90;;;;;;5026353;28;20045;-55
2023/09/06 10:57:12;;;;;;;5.20;3.40;;;28.30;99.90;;;;;;5043638;28;20047;-54
2023/09/06 10:59:42;;;;;;;5.20;3.55;;;28.30;99.60;;;;;;5025810;28;20468;-55
2023/09/06 11:02:09;;;;;;;4.55;3.58;;;28.30;99.90;;;;;;5040022;28;20040;-55
2023/09/06 11:04:36;;;;;;;5.32;3.70;;;28.40;99.90;;;;;;5041562;28;20041;-54
2023/09/06 11:07:09;;;;;;;4.40;3.20;;;28.50;99.90;;;;;;5044223;28;20177;-55
2023/09/06 11:09:43;;;;;;;4.50;3.30;;;28.50;99.50;;;;;;5038870;28;20052;-54
2023/09/06 11:12:13;;;;;;;4.13;3.20;;;28.50;98.90;;;;;;5041035;28;20055;-55
2023/09/06 11:14:40;;;;;;;4.93;3.65;;;28.50;98.00;;;;;;5044191;28;20044;-54
2023/09/06 11:17:06;;;;;;;4.70;3.55;;;28.60;98.90;;;;;;5025748;28;20029;-54
2023/09/06 11:19:35;;;;;;;4.38;3.65;;;28.60;98.80;;;;;;5043765;28;20128;-55
2023/09/06 11:22:06;;;;;;;4.38;3.15;;;28.70;98.50;;;;;;5043995;28;20052;-54
2023/09/06 11:24:33;;;;;;;5.60;3.70;;;28.80;98.70;;;;;;5025313;28;20455;-54
2023/09/06 11:27:03;;;;;;;5.93;3.83;;;28.70;98.40;;;;;;5024479;28;20037;-54
2023/09/06 11:29:30;;;;;;;4.18;3.30;;;28.70;99.40;;;;;;5023933;28;20049;-55
2023/09/06 11:32:08;;;;;;;8.27;3.33;;;28.70;99.50;;;;;;5043553;28;20044;-54
2023/09/06 11:34:44;;;;;;;5.40;3.13;;;28.80;98.70;;;;;;5025977;28;20040;-54
2023/09/06 11:37:13;;;;;;;4.30;2.78;;;28.70;99.00;;;;;;5042010;28;20059;-54
2023/09/06 11:39:41;;;;;;;5.80;3.55;;;28.60;98.40;;;;;;5024028;28;20112;-54
2023/09/06 11:42:11;;;;;;;4.00;3.20;;;28.70;98.40;;;;;;5002572;28;20048;-54
2023/09/06 11:44:43;;;;;;;5.70;3.33;;;28.80;98.00;;;;;;5051882;28;20029;-55
2023/09/06 11:47:09;;;;;;;5.47;3.22;;;28.80;97.80;;;;;;5046684;28;20106;-54
2023/09/06 11:49:35;;;;;;;4.97;3.50;;;28.90;98.40;;;;;;5034580;28;20763;-54
2023/09/06 11:52:05;;;;;;;4.18;2.85;;;28.90;98.80;;;;;;5043908;28;20064;-55
2023/09/06 11:54:32;;;;;;;4.13;3.28;;;28.90;98.60;;;;;;5016009;28;20132;-54
2023/09/06 11:56:58;;;;;;;5.50;3.70;;;28.90;99.10;;;;;;5024861;28;20051;-54
2023/09/06 11:59:24;;;;;;;6.07;3.30;;;28.80;99.00;;;;;;5043327;28;20656;-54
2023/09/06 12:01:58;;;;;;;5.57;3.42;;;28.80;98.90;;;;;;5043302;28;20044;-54
2023/09/06 12:04:28;;;;;;;7.47;3.63;;;28.80;99.00;;;;;;5043516;28;20443;-54
2023/09/06 12:06:55;;;;;;;5.60;3.60;;;28.80;99.00;;;;;;5025617;28;20041;-54
2023/09/06 12:09:21;;;;;;;4.20;3.60;;;28.90;99.60;;;;;;5046800;28;20053;-55
2023/09/06 12:11:47;;;;;;;5.38;3.65;;;28.90;99.40;;;;;;5029194;28;20064;-55
2023/09/06 12:14:13;;;;;;;5.22;3.53;;;28.80;99.00;;;;;;5047287;28;20036;-55
2023/09/06 12:16:41;;;;;;;4.07;3.60;;;28.70;99.70;;;;;;5046535;28;20622;-55
2023/09/06 12:19:11;;;;;;;4.32;3.47;;;28.70;99.90;;;;;;5046299;28;20434;-54
2023/09/06 12:21:37;;;;;;;13.32;3.75;;;28.80;99.40;;;;;;5046809;28;20099;-55
2023/09/06 12:24:03;;;;;;;3.92;3.40;;;28.80;99.90;;;;;;5029001;28;20468;-54
2023/09/06 12:26:29;;;;;;;6.45;3.65;;;28.90;99.50;;;;;;5052031;28;20120;-54
2023/09/06 12:28:54;;;;;;;5.88;3.63;;;28.90;99.40;;;;;;5035716;28;20056;-55
2023/09/06 12:31:20;;;;;;;5.00;3.22;;;28.90;99.90;;;;;;5029864;28;20061;-54
2023/09/06 12:33:47;;;;;;;5.03;3.45;;;29.00;99.00;;;;;;5047256;28;20120;-55
2023/09/06 12:36:14;;;;;;;4.47;3.65;;;29.10;99.30;;;;;;5045703;28;20333;-54
2023/09/06 12:38:39;;;;;;;5.70;3.63;;;29.00;99.50;;;;;;5043131;28;20114;-54
2023/09/06 12:41:06;;;;;;;10.18;3.95;;;29.00;99.80;;;;;;5045863;28;20454;-56
2023/09/06 12:43:34;;;;;;;329.70;28.20;;;29.00;99.80;;;;;;5046886;28;20078;-49
2023/09/06 12:46:01;;;;;;;1991.38;292.50;;;29.00;99.60;;;;;;5044831;28;20045;-49